Adolph, Minnesota
Current Conditions -  °F | °C
As of 3:55 PM on Thursday 23 Oct 2014 (Local Time) from KDLH Reporting Station
Scattered Clouds Scattered Clouds  
Wind Chill: 57°   Ceiling: Unl
Heat Index: 57°   Visibility: 10mi
Dew Point: 48°   Wind: 7mph
Humidity: 72%   Direction: 230°SW
Pressure: 29.93"   Gusts: NA
Location:  46.78°N, 92.28°W
Report Text: KDLH 232055Z 23006KT 10SM SCT010 14/09 A2993 RMK AO2 SLP141 T01390089 58009
Loading
Personal Weather Stations






























Interactive Weather Map
Tropical Storm Tracking
New forecast layout! Learn more

10-Day Weather Forecast

Advertisements
Track Severe Weather on mobile